Time;durP1;ratioP1;P1;durP2;ratioP2;P2;SDS_P1;SDS_P2;PMS_P1;PMS_P2;Temp;Humidity;BMP_temperature;BMP_pressure;BME280_temperature;BME280_humidity;BME280_pressure;Samples;Min_cycle;Max_cycle;Signal;HPM_P1;HPM_P2
2023/04/01 00:01:19;;;;;;;8.32;5.55;;;;;;;;;;5064757;28;20565;-81
2023/04/01 00:03:45;;;;;;;9.15;5.28;;;;;;;;;;5054588;28;20044;-81
2023/04/01 00:06:13;;;;;;;11.52;6.22;;;;;;;;;;5037704;28;20080;-81
2023/04/01 00:08:39;;;;;;;10.35;5.90;;;;;;;;;;5052078;28;20037;-81
2023/04/01 00:11:06;;;;;;;10.38;5.82;;;;;;;;;;5075923;28;20033;-81
2023/04/01 00:13:32;;;;;;;10.65;6.43;;;;;;;;;;5054263;28;20124;-81
2023/04/01 00:15:58;;;;;;;9.35;5.65;;;;;;;;;;5055722;28;20051;-81
2023/04/01 00:18:24;;;;;;;11.05;6.10;;;;;;;;;;5054574;28;20037;-81
2023/04/01 00:20:51;;;;;;;9.60;5.65;;;;;;;;;;5054168;28;20132;-81
2023/04/01 00:23:18;;;;;;;10.05;6.10;;;;;;;;;;5054348;28;20049;-81
2023/04/01 00:25:46;;;;;;;10.25;6.28;;;;;;;;;;5053943;28;20044;-81
2023/04/01 00:28:12;;;;;;;11.35;5.90;;;;;;;;;;5055372;28;20061;-81
2023/04/01 00:30:38;;;;;;;10.80;5.60;;;;;;;;;;5053942;28;20056;-81
2023/04/01 00:33:05;;;;;;;9.20;5.72;;;;;;;;;;5055200;28;20044;-81
2023/04/01 00:35:32;;;;;;;9.88;5.82;;;;;;;;;;5053960;28;20052;-81
2023/04/01 00:37:58;;;;;;;9.02;5.90;;;;;;;;;;5054983;28;20169;-81
2023/04/01 00:40:28;;;;;;;10.65;5.50;;;;;;;;;;5054008;28;20045;-81
2023/04/01 00:42:54;;;;;;;11.07;5.63;;;;;;;;;;5053562;28;20087;-81
2023/04/01 00:45:29;;;;;;;12.00;5.72;;;;;;;;;;5053994;28;20072;-81
2023/04/01 00:47:57;;;;;;;10.45;5.75;;;;;;;;;;5053805;28;20040;-81
2023/04/01 00:50:25;;;;;;;8.85;5.60;;;;;;;;;;5053974;28;20058;-81
2023/04/01 00:52:51;;;;;;;12.35;5.80;;;;;;;;;;5053659;28;20041;-81
2023/04/01 00:55:19;;;;;;;10.23;5.70;;;;;;;;;;5053435;28;20041;-81
2023/04/01 00:57:46;;;;;;;8.57;5.60;;;;;;;;;;5055124;28;20049;-81
2023/04/01 01:00:14;;;;;;;10.88;6.00;;;;;;;;;;5053541;28;20044;-81
2023/04/01 01:02:43;;;;;;;10.32;5.50;;;;;;;;;;5047535;28;20125;-81
2023/04/01 01:05:13;;;;;;;11.57;6.07;;;;;;;;;;5053066;28;20055;-81
2023/04/01 01:07:39;;;;;;;9.50;5.88;;;;;;;;;;5053229;28;20130;-81
2023/04/01 01:10:11;;;;;;;10.43;5.40;;;;;;;;;;5054368;28;20044;-82
2023/04/01 01:12:45;;;;;;;9.10;5.63;;;;;;;;;;5053705;28;20095;-81
2023/04/01 01:15:22;;;;;;;8.98;5.60;;;;;;;;;;5054719;28;20460;-81
2023/04/01 01:17:54;;;;;;;9.07;5.88;;;;;;;;;;5053226;28;20088;-81
2023/04/01 01:20:30;;;;;;;9.90;6.00;;;;;;;;;;5053395;28;20051;-81
2023/04/01 01:22:56;;;;;;;;;;;;;;;;;;5054048;28;20433;-81
2023/04/01 01:25:44;;;;;;;9.68;5.05;;;;;;;;;;5052979;28;19921;-81
2023/04/01 01:28:13;;;;;;;11.75;5.95;;;;;;;;;;5053182;28;20518;-81
2023/04/01 01:30:48;;;;;;;11.43;5.93;;;;;;;;;;5053135;28;20407;-81
2023/04/01 01:33:26;;;;;;;9.68;5.38;;;;;;;;;;5053050;28;20037;-81
2023/04/01 01:35:54;;;;;;;12.70;5.80;;;;;;;;;;5052928;28;20040;-81
2023/04/01 01:38:25;;;;;;;9.77;5.82;;;;;;;;;;5055980;28;20079;-81
2023/04/01 01:40:53;;;;;;;8.77;5.18;;;;;;;;;;5036463;28;20037;-81
2023/04/01 01:43:22;;;;;;;9.50;5.57;;;;;;;;;;5054124;28;20505;-81
2023/04/01 01:45:52;;;;;;;9.68;5.57;;;;;;;;;;5054107;28;20045;-81
2023/04/01 01:48:18;;;;;;;11.52;5.78;;;;;;;;;;5053056;28;20079;-81
2023/04/01 01:50:45;;;;;;;9.23;5.65;;;;;;;;;;5052555;28;20566;-81
2023/04/01 01:53:12;;;;;;;10.35;5.93;;;;;;;;;;5036032;28;20440;-81
2023/04/01 01:55:40;;;;;;;13.70;6.28;;;;;;;;;;5041765;28;20086;-81
2023/04/01 01:58:15;;;;;;;12.90;6.38;;;;;;;;;;5052329;28;20045;-81
2023/04/01 02:00:44;;;;;;;11.02;6.18;;;;;;;;;;5051865;28;20045;-81
2023/04/01 02:03:11;;;;;;;11.93;6.35;;;;;;;;;;5050601;28;20490;-81
2023/04/01 02:05:37;;;;;;;11.68;6.13;;;;;;;;;;5038583;28;20099;-81
2023/04/01 02:08:16;;;;;;;12.85;6.40;;;;;;;;;;5053443;28;20400;-81
2023/04/01 02:10:44;;;;;;;12.68;6.57;;;;;;;;;;5052304;28;20117;-81
2023/04/01 02:13:14;;;;;;;12.20;6.07;;;;;;;;;;5052248;28;20075;-81
2023/04/01 02:15:42;;;;;;;13.00;6.13;;;;;;;;;;5053746;28;20047;-81
2023/04/01 02:18:10;;;;;;;11.70;5.80;;;;;;;;;;5052107;28;20056;-81
2023/04/01 02:20:38;;;;;;;12.23;6.20;;;;;;;;;;5052014;28;20047;-81
2023/04/01 02:23:05;;;;;;;14.85;6.50;;;;;;;;;;5053451;28;20052;-81
2023/04/01 02:25:33;;;;;;;10.57;5.90;;;;;;;;;;5053258;28;20051;-81
2023/04/01 02:28:00;;;;;;;12.88;6.45;;;;;;;;;;5051728;28;20044;-81
2023/04/01 02:30:30;;;;;;;13.18;6.18;;;;;;;;;;5052067;28;20457;-81
2023/04/01 02:32:57;;;;;;;12.18;6.13;;;;;;;;;;5052101;28;20485;-81
2023/04/01 02:35:23;;;;;;;12.40;6.28;;;;;;;;;;5067150;28;20048;-81
2023/04/01 02:37:50;;;;;;;9.48;5.55;;;;;;;;;;5033562;28;20037;-81
2023/04/01 02:40:17;;;;;;;13.85;5.75;;;;;;;;;;5057688;28;20111;-81
2023/04/01 02:42:43;;;;;;;11.88;5.90;;;;;;;;;;5067680;28;20036;-81
2023/04/01 02:45:10;;;;;;;12.75;5.88;;;;;;;;;;5085150;28;20044;-81
2023/04/01 02:47:36;;;;;;;11.55;5.70;;;;;;;;;;5052703;28;20033;-81
2023/04/01 02:50:03;;;;;;;12.32;6.13;;;;;;;;;;5051684;28;20044;-81
2023/04/01 02:52:29;;;;;;;14.00;5.70;;;;;;;;;;5051874;28;20045;-81
2023/04/01 02:54:56;;;;;;;12.00;5.50;;;;;;;;;;5051970;28;20583;-81
2023/04/01 02:57:22;;;;;;;12.27;5.60;;;;;;;;;;5052761;28;20040;-81
2023/04/01 02:59:48;;;;;;;9.98;5.38;;;;;;;;;;5065704;28;20113;-81
2023/04/01 03:02:15;;;;;;;10.68;5.78;;;;;;;;;;5068004;28;20045;-81
2023/04/01 03:04:41;;;;;;;10.68;5.60;;;;;;;;;;5052910;28;20040;-81
2023/04/01 03:07:08;;;;;;;9.13;5.30;;;;;;;;;;5051129;28;20048;-81
2023/04/01 03:09:34;;;;;;;9.48;5.45;;;;;;;;;;5065580;28;20101;-81
2023/04/01 03:12:00;;;;;;;9.25;4.93;;;;;;;;;;5052719;28;20068;-81
2023/04/01 03:14:26;;;;;;;10.23;5.47;;;;;;;;;;5051295;28;20041;-81
2023/04/01 03:16:52;;;;;;;10.90;5.43;;;;;;;;;;5060297;28;20045;-81
2023/04/01 03:19:18;;;;;;;11.07;6.00;;;;;;;;;;5055444;28;20040;-81
2023/04/01 03:21:44;;;;;;;11.07;5.93;;;;;;;;;;5055338;28;20041;-81
2023/04/01 03:24:11;;;;;;;10.05;5.55;;;;;;;;;;5056806;28;20044;-81
2023/04/01 03:26:37;;;;;;;9.95;5.28;;;;;;;;;;5055382;28;20036;-81
2023/04/01 03:29:03;;;;;;;9.27;5.25;;;;;;;;;;5056695;28;20053;-81
2023/04/01 03:31:29;;;;;;;8.93;5.47;;;;;;;;;;5056848;28;20120;-81
2023/04/01 03:33:55;;;;;;;9.32;5.30;;;;;;;;;;5069595;28;20544;-81
2023/04/01 03:36:21;;;;;;;8.88;5.32;;;;;;;;;;5055483;28;20501;-82
2023/04/01 03:38:47;;;;;;;8.77;4.95;;;;;;;;;;5055830;28;20045;-81
2023/04/01 03:41:17;;;;;;;7.80;4.72;;;;;;;;;;5056764;28;20040;-81
2023/04/01 03:43:44;;;;;;;8.00;4.90;;;;;;;;;;5056478;28;20095;-81
2023/04/01 03:46:10;;;;;;;8.70;4.68;;;;;;;;;;5054748;28;20099;-81
2023/04/01 03:48:36;;;;;;;8.75;4.50;;;;;;;;;;5055195;28;20044;-82
2023/04/01 03:51:02;;;;;;;7.60;4.13;;;;;;;;;;5058480;28;20041;-81
2023/04/01 03:53:28;;;;;;;8.65;4.25;;;;;;;;;;5068478;28;20344;-81
2023/04/01 03:55:55;;;;;;;6.47;3.85;;;;;;;;;;5055695;28;20175;-81
2023/04/01 03:58:21;;;;;;;7.47;3.53;;;;;;;;;;5061738;28;20048;-81
2023/04/01 04:00:47;;;;;;;6.30;3.25;;;;;;;;;;5071378;28;20493;-81
2023/04/01 04:03:13;;;;;;;4.93;2.78;;;;;;;;;;5054830;28;20048;-81
2023/04/01 04:05:46;;;;;;;6.70;2.80;;;;;;;;;;5054380;28;20127;-81
2023/04/01 04:08:12;;;;;;;6.80;2.80;;;;;;;;;;5054607;28;20037;-81
2023/04/01 04:10:39;;;;;;;4.95;2.80;;;;;;;;;;5054865;28;20198;-81
2023/04/01 04:13:05;;;;;;;4.78;2.78;;;;;;;;;;5054819;28;20494;-81
2023/04/01 04:15:31;;;;;;;5.13;2.95;;;;;;;;;;5055645;28;20412;-81
2023/04/01 04:17:57;;;;;;;4.20;2.70;;;;;;;;;;5054596;28;20049;-81
2023/04/01 04:20:24;;;;;;;4.63;2.88;;;;;;;;;;5055643;28;20068;-81
2023/04/01 04:22:50;;;;;;;4.40;2.88;;;;;;;;;;5037174;28;20044;-81
2023/04/01 04:25:16;;;;;;;4.60;2.90;;;;;;;;;;5047148;28;20077;-81
2023/04/01 04:27:42;;;;;;;6.88;3.33;;;;;;;;;;5069037;28;20130;-81
2023/04/01 04:30:09;;;;;;;5.25;3.10;;;;;;;;;;5054294;28;20045;-81
2023/04/01 04:32:35;;;;;;;5.63;3.10;;;;;;;;;;5054300;28;20098;-81
2023/04/01 04:35:01;;;;;;;6.32;3.17;;;;;;;;;;5054918;28;20501;-81
2023/04/01 04:37:28;;;;;;;7.35;3.72;;;;;;;;;;5055068;28;20036;-81
2023/04/01 04:39:54;;;;;;;5.22;3.17;;;;;;;;;;5054431;28;20045;-81
2023/04/01 04:42:20;;;;;;;5.22;3.15;;;;;;;;;;5054049;28;20094;-81
2023/04/01 04:44:46;;;;;;;5.78;3.38;;;;;;;;;;5055235;28;20553;-81
2023/04/01 04:47:12;;;;;;;7.10;3.60;;;;;;;;;;5055486;28;20040;-81
2023/04/01 04:49:39;;;;;;;5.10;3.13;;;;;;;;;;5054077;28;20051;-81
2023/04/01 04:52:05;;;;;;;5.95;3.55;;;;;;;;;;5053935;28;20037;-81
2023/04/01 04:54:31;;;;;;;7.18;3.70;;;;;;;;;;5057331;28;20508;-81
2023/04/01 04:56:57;;;;;;;7.03;3.78;;;;;;;;;;5048842;28;20049;-81
2023/04/01 04:59:23;;;;;;;8.15;4.05;;;;;;;;;;5053835;28;20080;-81
2023/04/01 05:01:49;;;;;;;7.63;3.88;;;;;;;;;;5053585;28;20040;-81
2023/04/01 05:04:15;;;;;;;7.07;3.42;;;;;;;;;;5053831;28;20047;-81
2023/04/01 05:06:43;;;;;;;6.70;4.03;;;;;;;;;;5053559;28;20052;-81
2023/04/01 05:09:09;;;;;;;7.28;3.90;;;;;;;;;;5053576;28;20052;-81
2023/04/01 05:11:35;;;;;;;7.03;3.35;;;;;;;;;;5053735;28;20047;-81
2023/04/01 05:14:01;;;;;;;5.88;3.25;;;;;;;;;;5054614;28;20064;-81
2023/04/01 05:16:27;;;;;;;6.53;3.20;;;;;;;;;;5053303;28;20056;-82
2023/04/01 05:18:53;;;;;;;5.53;2.97;;;;;;;;;;5053495;28;20044;-82
2023/04/01 05:21:19;;;;;;;6.03;2.97;;;;;;;;;;5053364;28;20074;-81
2023/04/01 05:23:45;;;;;;;4.75;2.65;;;;;;;;;;5053178;28;20049;-81
2023/04/01 05:26:13;;;;;;;6.35;3.35;;;;;;;;;;5069807;28;20056;-81
2023/04/01 05:28:39;;;;;;;5.63;3.17;;;;;;;;;;5052963;28;20057;-81
2023/04/01 05:31:06;;;;;;;6.90;3.08;;;;;;;;;;5054413;28;20047;-82
2023/04/01 05:33:32;;;;;;;7.00;3.40;;;;;;;;;;5053262;28;20041;-82
2023/04/01 05:36:06;;;;;;;5.75;3.38;;;;;;;;;;5065888;28;20113;-81
2023/04/01 05:38:32;;;;;;;6.70;3.42;;;;;;;;;;5054640;28;20033;-82
2023/04/01 05:41:01;;;;;;;7.90;3.75;;;;;;;;;;5051956;28;20051;-81
2023/04/01 05:43:27;;;;;;;9.45;4.20;;;;;;;;;;5053919;28;20538;-82
2023/04/01 05:45:53;;;;;;;7.80;4.13;;;;;;;;;;5055397;28;20084;-81
2023/04/01 05:48:20;;;;;;;9.30;3.88;;;;;;;;;;5060143;28;20144;-81
2023/04/01 05:50:46;;;;;;;14.27;5.03;;;;;;;;;;5069340;28;20080;-81
2023/04/01 05:53:12;;;;;;;9.80;4.63;;;;;;;;;;5052567;28;20045;-81
2023/04/01 05:55:38;;;;;;;9.15;4.75;;;;;;;;;;5052659;28;20483;-82
2023/04/01 05:58:04;;;;;;;11.57;5.03;;;;;;;;;;5036303;28;20397;-81
2023/04/01 06:00:30;;;;;;;9.70;4.90;;;;;;;;;;5053980;28;20112;-81
2023/04/01 06:02:58;;;;;;;9.77;5.10;;;;;;;;;;5052867;28;20041;-81
2023/04/01 06:05:26;;;;;;;8.13;4.25;;;;;;;;;;5036169;28;20044;-81
2023/04/01 06:07:56;;;;;;;10.88;5.00;;;;;;;;;;5085868;28;20087;-81
2023/04/01 06:10:23;;;;;;;9.52;4.60;;;;;;;;;;5032626;28;20111;-81
2023/04/01 06:12:55;;;;;;;8.70;4.68;;;;;;;;;;5052389;28;20072;-81
2023/04/01 06:15:25;;;;;;;11.05;4.53;;;;;;;;;;5039894;28;20037;-81
2023/04/01 06:18:10;;;;;;;9.05;4.50;;;;;;;;;;5053100;28;20032;-81
2023/04/01 06:20:55;;;;;;;9.05;4.63;;;;;;;;;;5053203;28;20045;-81
2023/04/01 06:23:27;;;;;;;9.57;4.80;;;;;;;;;;5041836;28;20389;-81
2023/04/01 06:26:08;;;;;;;8.63;4.57;;;;;;;;;;5035514;28;20409;-81
2023/04/01 06:28:41;;;;;;;8.20;4.28;;;;;;;;;;5051708;28;20056;-81
2023/04/01 06:31:21;;;;;;;8.13;4.28;;;;;;;;;;5052465;28;20052;-81
2023/04/01 06:34:02;;;;;;;9.02;4.78;;;;;;;;;;5051779;28;20106;-81
2023/04/01 06:36:47;;;;;;;7.85;4.50;;;;;;;;;;5039872;28;20045;-82
2023/04/01 06:39:13;;;;;;;9.95;4.40;;;;;;;;;;5039655;28;20045;-82
2023/04/01 06:41:55;;;;;;;9.40;4.95;;;;;;;;;;5051780;28;20041;-82
2023/04/01 06:44:21;;;;;;;9.70;5.63;;;;;;;;;;5039727;28;20060;-82
2023/04/01 06:46:53;;;;;;;8.98;5.25;;;;;;;;;;5035119;28;20041;-81
2023/04/01 06:49:22;;;;;;;11.35;5.20;;;;;;;;;;5051784;28;20048;-82
2023/04/01 06:52:00;;;;;;;9.38;5.03;;;;;;;;;;5051488;28;20126;-82
2023/04/01 06:54:32;;;;;;;7.63;4.32;;;;;;;;;;5051850;28;20127;-81
2023/04/01 06:57:01;;;;;;;7.60;4.28;;;;;;;;;;5051564;28;20045;-82
2023/04/01 06:59:32;;;;;;;9.05;4.80;;;;;;;;;;5051824;28;20489;-82
2023/04/01 07:02:05;;;;;;;8.05;4.75;;;;;;;;;;5053116;28;20396;-81
2023/04/01 07:04:33;;;;;;;8.07;4.45;;;;;;;;;;5068453;28;20045;-81
2023/04/01 07:07:02;;;;;;;8.00;4.53;;;;;;;;;;5051621;28;20080;-81
2023/04/01 07:09:33;;;;;;;7.95;4.25;;;;;;;;;;5053106;28;20033;-81
2023/04/01 07:12:01;;;;;;;8.60;4.60;;;;;;;;;;5052630;28;20048;-81
2023/04/01 07:14:31;;;;;;;7.95;4.40;;;;;;;;;;5051694;28;20457;-82
2023/04/01 07:17:01;;;;;;;8.88;4.30;;;;;;;;;;5051451;28;20624;-81
2023/04/01 07:19:32;;;;;;;7.35;4.22;;;;;;;;;;5034912;28;20125;-82
2023/04/01 07:22:02;;;;;;;7.85;3.70;;;;;;;;;;5052496;28;20037;-82
2023/04/01 07:24:32;;;;;;;7.10;3.70;;;;;;;;;;5051692;28;20037;-82
2023/04/01 07:26:58;;;;;;;6.63;3.58;;;;;;;;;;5050840;28;20037;-82
2023/04/01 07:29:25;;;;;;;6.40;3.55;;;;;;;;;;5052207;28;20106;-81
2023/04/01 07:32:08;;;;;;;5.65;3.65;;;;;;;;;;5043830;28;20390;-81
2023/04/01 07:34:34;;;;;;;6.80;4.00;;;;;;;;;;5046761;28;20073;-81
2023/04/01 07:37:04;;;;;;;6.18;3.45;;;;;;;;;;5034436;28;20045;-82
2023/04/01 07:39:33;;;;;;;5.95;3.30;;;;;;;;;;5052282;28;20075;-82
2023/04/01 07:42:08;;;;;;;6.20;3.78;;;;;;;;;;5051150;28;20402;-81
2023/04/01 07:44:37;;;;;;;6.73;3.83;;;;;;;;;;5052421;28;20033;-82
2023/04/01 07:47:19;;;;;;;7.45;3.97;;;;;;;;;;5051261;28;20299;-81
2023/04/01 07:50:17;;;;;;;6.32;3.78;;;;;;;;;;5050846;28;20072;-81
2023/04/01 07:52:49;;;;;;;7.18;3.80;;;;;;;;;;5049960;28;20080;-81
2023/04/01 07:55:30;;;;;;;6.07;3.10;;;;;;;;;;5034372;28;20413;-81
2023/04/01 07:58:17;;;;;;;5.25;3.20;;;;;;;;;;5050943;28;20041;-82
2023/04/01 08:00:46;;;;;;;5.30;3.10;;;;;;;;;;5050308;28;20044;-82
2023/04/01 08:03:20;;;;;;;5.38;3.03;;;;;;;;;;5035744;28;20041;-81
2023/04/01 08:05:46;;;;;;;5.55;3.38;;;;;;;;;;5054576;28;20080;-81
2023/04/01 08:08:16;;;;;;;6.07;3.20;;;;;;;;;;5055856;28;20040;-81
2023/04/01 08:10:42;;;;;;;6.03;3.28;;;;;;;;;;5054567;28;20037;-81
2023/04/01 08:13:17;;;;;;;6.70;4.05;;;;;;;;;;5055663;28;20036;-82
2023/04/01 08:15:49;;;;;;;7.03;4.07;;;;;;;;;;5056109;28;20486;-81
2023/04/01 08:18:21;;;;;;;7.68;4.43;;;;;;;;;;5055840;28;20306;-82
2023/04/01 08:20:58;;;;;;;8.02;4.85;;;;;;;;;;5054915;28;20383;-82
2023/04/01 08:23:29;;;;;;;8.40;4.95;;;;;;;;;;5055825;28;20039;-82
2023/04/01 08:26:00;;;;;;;9.55;5.18;;;;;;;;;;5054331;28;20049;-82
2023/04/01 08:28:35;;;;;;;9.20;4.85;;;;;;;;;;5054385;28;20049;-82
2023/04/01 08:31:04;;;;;;;9.32;5.47;;;;;;;;;;5056061;28;20045;-82
2023/04/01 08:33:31;;;;;;;9.63;5.57;;;;;;;;;;5054562;28;20482;-82
2023/04/01 08:35:57;;;;;;;9.98;5.50;;;;;;;;;;5054537;28;20506;-83
2023/04/01 08:38:42;;;;;;;9.20;5.90;;;;;;;;;;5054100;28;20044;-83
2023/04/01 08:41:20;;;;;;;10.60;6.30;;;;;;;;;;5054262;28;20720;-82
2023/04/01 08:43:49;;;;;;;10.60;6.32;;;;;;;;;;5053972;28;20067;-82
2023/04/01 08:46:21;;;;;;;10.15;6.40;;;;;;;;;;5053739;28;20037;-82
2023/04/01 08:48:47;;;;;;;11.40;6.70;;;;;;;;;;5055204;28;20041;-82
2023/04/01 08:51:28;;;;;;;10.45;6.57;;;;;;;;;;5054130;28;20044;-82
2023/04/01 08:53:55;;;;;;;10.82;6.93;;;;;;;;;;5046078;28;20048;-82
2023/04/01 08:56:23;;;;;;;11.75;7.00;;;;;;;;;;5053855;28;20093;-82
2023/04/01 08:58:55;;;;;;;11.85;6.65;;;;;;;;;;5054797;28;20045;-82
2023/04/01 09:01:24;;;;;;;10.50;6.90;;;;;;;;;;5045373;28;20466;-82
2023/04/01 09:04:00;;;;;;;10.07;6.35;;;;;;;;;;5053587;28;20041;-82
2023/04/01 09:06:26;;;;;;;10.38;6.43;;;;;;;;;;5053169;28;20106;-82
2023/04/01 09:09:22;;;;;;;10.95;6.70;;;;;;;;;;5053544;28;20037;-82
2023/04/01 09:11:51;;;;;;;11.77;6.95;;;;;;;;;;5032424;28;20045;-82
2023/04/01 09:14:41;;;;;;;12.15;6.40;;;;;;;;;;5052843;28;20128;-82
2023/04/01 09:17:20;;;;;;;11.50;6.80;;;;;;;;;;5053573;28;20052;-82
2023/04/01 09:20:05;;;;;;;10.82;6.50;;;;;;;;;;5036767;28;20055;-82
2023/04/01 09:22:50;;;;;;;12.27;7.63;;;;;;;;;;5053532;28;20127;-82
2023/04/01 09:25:22;;;;;;;12.63;7.15;;;;;;;;;;5053204;28;20040;-82
2023/04/01 09:27:48;;;;;;;11.73;7.82;;;;;;;;;;5053129;28;20049;-82
2023/04/01 09:30:29;;;;;;;13.63;8.15;;;;;;;;;;5051571;28;20033;-82
2023/04/01 09:33:14;;;;;;;14.75;9.05;;;;;;;;;;5045414;28;20041;-82
2023/04/01 09:36:09;;;;;;;14.38;8.63;;;;;;;;;;5054668;28;20053;-82
2023/04/01 09:38:38;;;;;;;14.48;8.85;;;;;;;;;;5068117;28;20510;-82
2023/04/01 09:41:23;;;;;;;15.10;9.45;;;;;;;;;;5053017;28;20049;-82
2023/04/01 09:43:55;;;;;;;15.25;9.70;;;;;;;;;;5054253;28;20071;-82
2023/04/01 09:46:39;;;;;;;19.10;10.45;;;;;;;;;;5054070;28;20120;-82
2023/04/01 09:49:32;;;;;;;16.52;10.00;;;;;;;;;;5036035;28;20095;-82
2023/04/01 09:52:01;;;;;;;14.98;9.35;;;;;;;;;;5044532;28;20052;-82
2023/04/01 09:54:33;;;;;;;17.30;10.48;;;;;;;;;;5053033;28;20048;-82
2023/04/01 09:57:05;;;;;;;16.70;9.98;;;;;;;;;;5052790;28;20535;-82
2023/04/01 09:59:50;;;;;;;17.02;10.25;;;;;;;;;;5053005;28;20393;-82
2023/04/01 10:02:19;;;;;;;16.55;9.43;;;;;;;;;;5052529;28;20081;-82
2023/04/01 10:05:05;;;;;;;16.60;9.57;;;;;;;;;;5052375;28;20127;-82
2023/04/01 10:07:37;;;;;;;15.63;9.55;;;;;;;;;;5050741;28;20046;-82
2023/04/01 10:10:22;;;;;;;18.95;10.02;;;;;;;;;;5042086;28;20048;-82
2023/04/01 10:12:54;;;;;;;16.48;9.15;;;;;;;;;;5052183;28;20033;-82
2023/04/01 10:15:35;;;;;;;16.05;9.30;;;;;;;;;;5052603;28;20048;-82
2023/04/01 10:18:19;;;;;;;15.85;9.32;;;;;;;;;;5052120;28;20116;-82
2023/04/01 10:20:52;;;;;;;14.63;9.10;;;;;;;;;;5052151;28;20045;-82
2023/04/01 10:23:33;;;;;;;15.88;8.77;;;;;;;;;;5051453;28;20041;-82
2023/04/01 10:26:05;;;;;;;16.83;9.50;;;;;;;;;;5051915;28;20052;-82
2023/04/01 10:28:37;;;;;;;14.38;8.60;;;;;;;;;;5052361;28;20406;-82
2023/04/01 10:31:22;;;;;;;16.27;9.85;;;;;;;;;;5052518;28;20076;-82
2023/04/01 10:33:48;;;;;;;15.02;9.27;;;;;;;;;;5052258;28;20444;-82
2023/04/01 10:36:14;;;;;;;15.52;9.52;;;;;;;;;;5035925;28;20040;-82
2023/04/01 10:38:46;;;;;;;14.45;8.98;;;;;;;;;;5051769;28;20041;-83
2023/04/01 10:41:28;;;;;;;14.73;9.05;;;;;;;;;;5052094;28;20045;-82
2023/04/01 10:44:00;;;;;;;13.38;8.77;;;;;;;;;;5053654;28;20045;-83
2023/04/01 10:46:44;;;;;;;13.55;9.05;;;;;;;;;;5052305;28;20041;-83
2023/04/01 10:49:26;;;;;;;14.02;9.38;;;;;;;;;;5053683;28;20033;-83
2023/04/01 10:51:52;;;;;;;14.55;9.80;;;;;;;;;;5053857;28;20072;-82
2023/04/01 10:54:47;;;;;;;15.13;9.40;;;;;;;;;;5053413;28;20041;-83
2023/04/01 10:57:16;;;;;;;13.43;8.65;;;;;;;;;;5026891;28;20057;-82
2023/04/01 10:59:42;;;;;;;11.88;7.53;;;;;;;;;;5052661;28;20102;-82
2023/04/01 11:02:26;;;;;;;9.55;6.70;;;;;;;;;;5052132;28;20037;-82
2023/04/01 11:05:11;;;;;;;8.35;6.15;;;;;;;;;;5051395;28;20043;-82
2023/04/01 11:07:50;;;;;;;8.38;5.30;;;;;;;;;;5052084;28;20498;-82
2023/04/01 11:10:50;;;;;;;8.25;5.78;;;;;;;;;;5039774;28;20174;-82
2023/04/01 11:13:19;;;;;;;7.55;5.20;;;;;;;;;;5081257;28;20041;-82
2023/04/01 11:15:48;;;;;;;7.03;4.82;;;;;;;;;;5051679;28;20203;-82
2023/04/01 11:18:26;;;;;;;7.50;5.03;;;;;;;;;;5052663;28;20559;-82
2023/04/01 11:21:04;;;;;;;6.47;4.50;;;;;;;;;;5052537;28;20061;-82
2023/04/01 11:23:36;;;;;;;6.88;4.72;;;;;;;;;;5034667;28;20118;-83
2023/04/01 11:26:03;;;;;;;6.68;4.47;;;;;;;;;;5051463;28;20045;-82
2023/04/01 11:28:54;;;;;;;6.93;4.85;;;;;;;;;;5051206;28;20413;-83
2023/04/01 11:31:36;;;;;;;6.40;4.47;;;;;;;;;;5037511;28;20402;-83
2023/04/01 11:34:10;;;;;;;7.97;4.80;;;;;;;;;;5051680;28;20122;-83
2023/04/01 11:36:42;;;;;;;6.78;4.78;;;;;;;;;;5051223;28;20045;-83
2023/04/01 11:39:21;;;;;;;7.18;4.32;;;;;;;;;;5037295;28;20045;-83
2023/04/01 11:42:02;;;;;;;7.30;4.55;;;;;;;;;;5038825;28;20043;-83
2023/04/01 11:44:30;;;;;;;7.90;4.85;;;;;;;;;;5055055;28;20541;-82
2023/04/01 11:47:02;;;;;;;6.68;4.75;;;;;;;;;;5054742;28;20052;-82
2023/04/01 11:49:28;;;;;;;7.20;4.97;;;;;;;;;;5054573;28;20045;-83
2023/04/01 11:52:14;;;;;;;7.80;4.90;;;;;;;;;;5054849;28;20048;-83
2023/04/01 11:55:06;;;;;;;7.10;4.75;;;;;;;;;;5072541;28;20118;-83
2023/04/01 11:57:38;;;;;;;6.78;5.03;;;;;;;;;;5075765;28;20392;-83
2023/04/01 12:00:31;;;;;;;7.72;5.10;;;;;;;;;;5049002;28;20037;-83
2023/04/01 12:03:16;;;;;;;8.45;5.88;;;;;;;;;;5058551;28;20037;-83
2023/04/01 12:06:00;;;;;;;9.27;5.70;;;;;;;;;;5056224;28;20451;-83
2023/04/01 12:08:53;;;;;;;6.80;5.40;;;;;;;;;;5056029;28;20560;-83
2023/04/01 12:11:38;;;;;;;7.78;5.22;;;;;;;;;;5054828;28;20444;-83
2023/04/01 12:14:13;;;;;;;7.60;5.47;;;;;;;;;;5058984;28;20044;-83
2023/04/01 12:17:02;;;;;;;7.85;5.22;;;;;;;;;;5054724;28;20056;-83
2023/04/01 12:19:47;;;;;;;6.90;5.30;;;;;;;;;;5040779;28;20416;-83
2023/04/01 12:22:28;;;;;;;6.78;4.22;;;;;;;;;;5054145;28;20036;-83
2023/04/01 12:25:04;;;;;;;5.72;3.85;;;;;;;;;;5054461;28;20103;-83
2023/04/01 12:27:30;;;;;;;;;;;;;;;;;;5054200;28;20127;-82
2023/04/01 12:30:12;;;;;;;5.13;3.65;;;;;;;;;;5055765;28;19982;-83
2023/04/01 12:32:38;;;;;;;5.78;3.92;;;;;;;;;;5055167;28;20079;-83
2023/04/01 12:35:07;;;;;;;5.80;3.85;;;;;;;;;;5054200;28;20040;-83
2023/04/01 12:37:36;;;;;;;5.93;3.65;;;;;;;;;;5054299;28;20486;-83
2023/04/01 12:40:05;;;;;;;5.30;3.78;;;;;;;;;;5054085;28;20049;-83
2023/04/01 12:42:34;;;;;;;6.30;3.85;;;;;;;;;;5053920;28;20512;-83
2023/04/01 12:45:04;;;;;;;4.68;3.63;;;;;;;;;;5055422;28;20187;-83
2023/04/01 12:47:42;;;;;;;5.80;3.35;;;;;;;;;;5053622;28;20396;-83
2023/04/01 12:50:17;;;;;;;5.97;3.67;;;;;;;;;;5061602;28;20041;-83
2023/04/01 12:52:46;;;;;;;4.57;3.33;;;;;;;;;;5057862;28;20045;-82
2023/04/01 12:55:15;;;;;;;4.10;3.13;;;;;;;;;;5053805;28;20041;-83
2023/04/01 12:57:53;;;;;;;6.15;3.60;;;;;;;;;;5067491;28;20145;-82
2023/04/01 13:00:39;;;;;;;5.88;3.80;;;;;;;;;;5070308;28;20051;-83
2023/04/01 13:03:19;;;;;;;7.63;3.33;;;;;;;;;;5055010;28;20068;-83
2023/04/01 13:05:57;;;;;;;4.93;3.58;;;;;;;;;;5039367;28;20511;-83
2023/04/01 13:08:29;;;;;;;5.72;4.20;;;;;;;;;;5054753;28;20052;-83
2023/04/01 13:10:55;;;;;;;4.78;3.72;;;;;;;;;;5055081;28;20051;-83
2023/04/01 13:13:24;;;;;;;4.97;3.80;;;;;;;;;;5045563;28;20130;-83
2023/04/01 13:16:08;;;;;;;4.82;3.63;;;;;;;;;;5047660;28;20081;-82
2023/04/01 13:18:41;;;;;;;5.88;3.50;;;;;;;;;;5036340;28;20178;-83
2023/04/01 13:21:22;;;;;;;5.18;3.60;;;;;;;;;;5054584;28;20040;-82
2023/04/01 13:23:51;;;;;;;5.45;3.80;;;;;;;;;;5053104;28;20041;-83
2023/04/01 13:26:20;;;;;;;5.57;3.60;;;;;;;;;;5053041;28;20045;-83
2023/04/01 13:29:05;;;;;;;4.40;3.05;;;;;;;;;;5052409;28;20053;-83
2023/04/01 13:31:42;;;;;;;4.10;3.10;;;;;;;;;;5052533;28;20045;-83
2023/04/01 13:34:24;;;;;;;4.25;3.10;;;;;;;;;;5052994;28;20088;-83
2023/04/01 13:37:01;;;;;;;3.72;2.53;;;;;;;;;;5054392;28;20052;-83
2023/04/01 13:39:44;;;;;;;3.72;2.53;;;;;;;;;;5069068;28;21728;-82
2023/04/01 13:42:19;;;;;;;3.35;2.58;;;;;;;;;;5053923;28;20120;-83
2023/04/01 13:44:51;;;;;;;3.70;2.80;;;;;;;;;;5052463;28;20497;-83
2023/04/01 13:47:21;;;;;;;4.72;2.72;;;;;;;;;;5036095;28;20048;-83
2023/04/01 13:49:56;;;;;;;6.88;3.17;;;;;;;;;;5074049;28;20043;-82
2023/04/01 13:52:25;;;;;;;4.28;3.10;;;;;;;;;;5059704;28;20102;-82
2023/04/01 13:54:51;;;;;;;4.53;2.95;;;;;;;;;;5051887;28;20063;-83
2023/04/01 13:57:17;;;;;;;4.30;3.10;;;;;;;;;;5046922;28;20378;-82
2023/04/01 13:59:59;;;;;;;4.47;3.40;;;;;;;;;;5070025;28;20033;-82
2023/04/01 14:02:25;;;;;;;4.22;3.25;;;;;;;;;;5064682;28;20036;-82
2023/04/01 14:05:17;;;;;;;4.88;3.55;;;;;;;;;;5057895;28;20079;-82
2023/04/01 14:07:57;;;;;;;3.78;2.85;;;;;;;;;;5071666;28;20041;-82
2023/04/01 14:10:32;;;;;;;4.53;3.20;;;;;;;;;;5055258;28;20047;-82
2023/04/01 14:13:17;;;;;;;4.43;3.22;;;;;;;;;;5072169;28;20044;-83
2023/04/01 14:15:43;;;;;;;5.13;3.30;;;;;;;;;;5060980;28;20456;-83
2023/04/01 14:18:23;;;;;;;4.72;3.60;;;;;;;;;;5057889;28;20103;-83
2023/04/01 14:20:52;;;;;;;5.60;3.20;;;;;;;;;;5062473;28;20059;-82
2023/04/01 14:23:31;;;;;;;5.38;2.75;;;;;;;;;;5051611;28;20045;-82
2023/04/01 14:26:16;;;;;;;5.40;3.42;;;;;;;;;;5051618;28;20041;-82
2023/04/01 14:28:45;;;;;;;5.28;3.50;;;;;;;;;;5051136;28;20059;-82
2023/04/01 14:31:11;;;;;;;4.20;3.13;;;;;;;;;;5051697;28;20045;-82
2023/04/01 14:33:51;;;;;;;4.50;2.97;;;;;;;;;;5035124;28;20478;-82
2023/04/01 14:36:24;;;;;;;3.60;2.75;;;;;;;;;;5051588;28;20099;-82
2023/04/01 14:38:53;;;;;;;3.97;2.92;;;;;;;;;;5052369;28;20079;-82
2023/04/01 14:41:34;;;;;;;4.45;3.20;;;;;;;;;;5051285;28;20115;-82
2023/04/01 14:44:10;;;;;;;4.55;3.08;;;;;;;;;;5051755;28;20044;-82
2023/04/01 14:46:36;;;;;;;;;;;;;;;;;;5052651;28;20115;-82
2023/04/01 14:49:16;;;;;;;5.70;3.00;;;;;;;;;;5076358;28;19916;-82
2023/04/01 14:51:42;;;;;;;3.95;2.80;;;;;;;;;;5052035;28;20036;-82
2023/04/01 14:54:11;;;;;;;4.15;2.97;;;;;;;;;;5035023;28;20048;-82
2023/04/01 14:56:37;;;;;;;4.50;3.00;;;;;;;;;;5050874;28;20043;-82
2023/04/01 14:59:07;;;;;;;3.40;2.50;;;;;;;;;;5051115;28;20080;-82
2023/04/01 15:01:42;;;;;;;3.83;2.47;;;;;;;;;;5061273;28;20398;-82
2023/04/01 15:04:22;;;;;;;3.53;2.75;;;;;;;;;;5052267;28;20083;-82
2023/04/01 15:07:06;;;;;;;3.72;2.50;;;;;;;;;;5050577;28;20106;-82
2023/04/01 15:09:51;;;;;;;3.75;2.78;;;;;;;;;;5050893;28;20045;-82